Time;durP1;ratioP1;P1;durP2;ratioP2;P2;SDS_P1;SDS_P2;PMS_P1;PMS_P2;Temp;Humidity;BMP_temperature;BMP_pressure;BME280_temperature;BME280_humidity;BME280_pressure;Samples;Min_cycle;Max_cycle;Signal;HPM_P1;HPM_P2
2023/01/23 00:44:32;;;;;;;;;143.80;116.80;16.20;99.90;;;;;;5121405;27;12098;-78
2023/01/23 00:49:26;;;;;;;;;108.50;94.25;16.30;99.90;;;;;;5014025;27;2168890;-84
2023/01/23 00:51:55;;;;;;;;;123.20;103.60;16.30;99.90;;;;;;5050457;28;8738;-82
2023/01/23 00:54:23;;;;;;;;;113.40;95.80;16.40;99.90;;;;;;5045409;28;8772;-79
2023/01/23 00:56:49;;;;;;;;;94.40;83.80;16.50;99.90;;;;;;5013285;28;8859;-84
2023/01/23 00:59:16;;;;;;;;;95.60;82.00;16.60;99.90;;;;;;5009371;28;8794;-78
2023/01/23 01:01:42;;;;;;;;;115.60;96.40;16.70;99.90;;;;;;5012076;28;8739;-80
2023/01/23 01:04:09;;;;;;;;;134.20;112.00;16.80;99.90;;;;;;5028408;28;8855;-80
2023/01/23 01:06:36;;;;;;;;;120.20;104.80;16.90;99.90;;;;;;5027694;28;8769;-78
2023/01/23 01:09:03;;;;;;;;;114.40;93.20;17.00;99.90;;;;;;5043168;28;8776;-82
2023/01/23 01:11:29;;;;;;;;;99.20;95.40;17.00;99.90;;;;;;5043849;28;8772;-81
2023/01/23 01:13:56;;;;;;;;;94.80;79.60;17.10;99.90;;;;;;5046279;28;8757;-81
2023/01/23 01:16:29;;;;;;;;;94.00;83.20;17.20;99.90;;;;;;5065074;28;8766;-80
2023/01/23 01:18:55;;;;;;;;;89.20;77.20;17.30;99.90;;;;;;5049015;28;9108;-82
2023/01/23 01:23:26;;;;;;;;;82.50;72.00;17.40;99.90;;;;;;5017055;27;2191850;-78
2023/01/23 01:25:57;;;;;;;;;79.80;69.00;17.50;99.90;;;;;;5069068;28;8788;-79
2023/01/23 01:30:48;;;;;;;;;84.00;76.50;17.60;99.90;;;;;;4973498;27;2098192;-80
2023/01/23 01:33:15;;;;;;;;;88.60;76.80;17.70;99.90;;;;;;5029486;28;8774;-79
2023/01/23 01:35:41;;;;;;;;;84.60;77.80;17.70;99.90;;;;;;5002888;28;8781;-85
2023/01/23 01:38:08;;;;;;;;;87.20;77.20;17.80;99.90;;;;;;5005638;28;8772;-82
2023/01/23 01:40:35;;;;;;;;;80.20;73.60;18.00;99.90;;;;;;5048946;28;8862;-79
2023/01/23 01:43:04;;;;;;;;;85.40;76.80;18.10;99.90;;;;;;5016093;28;8741;-81
2023/01/23 01:46:07;;;;;;;;;93.40;76.80;18.10;99.90;;;;;;5032186;28;8783;-79
2023/01/23 01:49:07;;;;;;;;;101.40;88.20;18.20;99.90;;;;;;5048629;28;8764;-81
2023/01/23 01:51:39;;;;;;;;;100.40;87.20;18.30;99.90;;;;;;5050405;28;8784;-83
2023/01/23 01:54:06;;;;;;;;;95.40;87.40;18.30;99.90;;;;;;5049314;28;8760;-85
2023/01/23 01:56:42;;;;;;;;;97.80;86.00;18.60;99.90;;;;;;5050193;28;8768;-89
2023/01/23 01:59:08;;;;;;;;;94.20;86.20;18.60;99.90;;;;;;5017244;28;8788;-82
2023/01/23 02:01:35;;;;;;;;;95.60;82.60;18.70;99.90;;;;;;5032076;28;8825;-85
2023/01/23 02:04:02;;;;;;;;;89.40;84.80;18.80;99.90;;;;;;5050166;28;8776;-83
2023/01/23 02:06:28;;;;;;;;;92.40;81.20;18.80;99.90;;;;;;5031861;28;8765;-81
2023/01/23 02:09:01;;;;;;;;;95.20;83.40;18.80;99.90;;;;;;5049337;28;8804;-84
2023/01/23 02:11:27;;;;;;;;;88.40;82.00;18.90;99.90;;;;;;5049593;28;8825;-86
2023/01/23 02:13:55;;;;;;;;;98.00;81.40;18.60;99.90;;;;;;5015108;28;8826;-81
2023/01/23 02:16:31;;;;;;;;;92.40;82.20;18.70;99.90;;;;;;5033557;28;8799;-81
2023/01/23 02:19:00;;;;;;;;;91.80;79.00;18.80;99.90;;;;;;5017471;28;8765;-79
2023/01/23 02:21:27;;;;;;;;;84.20;77.20;19.00;99.90;;;;;;5048571;28;8760;-80
2023/01/23 02:24:16;;;;;;;;;82.60;75.40;19.10;99.90;;;;;;5017304;28;8765;-81
2023/01/23 02:26:43;;;;;;;;;85.00;79.40;19.30;99.90;;;;;;5032044;28;8784;-83
2023/01/23 02:29:10;;;;;;;;;83.20;75.60;19.50;99.90;;;;;;5014845;28;8814;-86
2023/01/23 02:31:37;;;;;;;;;85.20;75.40;19.60;99.90;;;;;;5050535;28;8775;-86
2023/01/23 02:34:04;;;;;;;;;84.80;73.00;19.70;99.90;;;;;;5032227;28;8771;-77
2023/01/23 02:36:32;;;;;;;;;83.80;73.60;19.80;99.90;;;;;;5047318;28;8783;-77
2023/01/23 02:39:13;;;;;;;;;80.20;69.60;19.80;99.90;;;;;;5029648;28;8791;-79
2023/01/23 02:41:44;;;;;;;;;80.60;66.60;19.90;99.90;;;;;;5021203;28;8756;-78
2023/01/23 02:44:20;;;;;;;;;81.60;73.00;19.90;99.90;;;;;;5001926;28;8756;-78
2023/01/23 02:46:46;;;;;;;;;79.40;74.20;19.90;99.90;;;;;;4998073;28;8752;-78
2023/01/23 02:49:13;;;;;;;;;79.20;69.20;20.00;99.90;;;;;;5018790;28;8788;-78
2023/01/23 02:51:39;;;;;;;;;77.60;65.60;20.00;99.90;;;;;;5018336;28;8838;-77
2023/01/23 02:54:06;;;;;;;;;76.40;62.80;20.10;99.90;;;;;;5002329;28;8784;-78
2023/01/23 02:56:32;;;;;;;;;72.40;57.20;20.30;99.90;;;;;;5001334;28;8776;-77
2023/01/23 03:01:09;;;;;;;;;69.25;53.00;20.70;99.90;;;;;;5042081;27;2148309;-79
2023/01/23 03:04:48;;;;;;;;;71.00;55.20;;;;;;;;5066853;28;13536;-85
2023/01/23 03:07:15;;;;;;;;;75.00;58.00;;;;;;;;5033386;28;8729;-78
2023/01/23 03:09:45;;;;;;;;;78.60;60.20;;;;;;;;5049313;28;8826;-85
2023/01/23 03:12:11;;;;;;;;;84.00;69.00;;;;;;;;5033402;28;9534;-80
2023/01/23 03:14:38;;;;;;;;;83.60;67.40;;;;;;;;5049188;28;8792;-80
2023/01/23 03:17:05;;;;;;;;;86.00;70.80;;;;;;;;5049213;28;8775;-79
2023/01/23 03:19:31;;;;;;;;;78.60;66.80;;;;;;;;5048743;28;8775;-79
2023/01/23 03:21:58;;;;;;;;;80.60;67.80;;;;;;;;5033250;28;8768;-79
2023/01/23 03:24:25;;;;;;;;;79.00;62.50;;;;;;;;5032551;28;8784;-80
2023/01/23 03:26:51;;;;;;;;;83.40;69.40;;;;;;;;5032896;28;8811;-79
2023/01/23 03:32:07;;;;;;;;;84.20;70.20;;;;;;;;5029467;28;8758;-84
2023/01/23 03:34:33;;;;;;;;;73.20;57.40;;;;;;;;5011828;28;8762;-80
2023/01/23 03:37:00;;;;;;;;;76.00;60.40;;;;;;;;5012794;28;8775;-79
2023/01/23 03:42:12;;;;;;;;;79.60;63.40;;;;;;;;5028225;28;8912;-80
2023/01/23 03:44:38;;;;;;;;;71.60;54.00;;;;;;;;5030631;28;8897;-80
2023/01/23 03:47:05;;;;;;;;;74.80;61.00;;;;;;;;5028675;28;8770;-85
2023/01/23 03:49:32;;;;;;;;;72.80;56.20;;;;;;;;5028652;28;8774;-79
2023/01/23 03:51:58;;;;;;;;;74.80;60.00;;;;;;;;5029866;28;8771;-79
2023/01/23 03:54:25;;;;;;;;;74.20;58.00;;;;;;;;5028711;28;8775;-79
2023/01/23 03:56:52;;;;;;;;;68.40;54.60;;;;;;;;5029082;28;8851;-79
2023/01/23 03:59:18;;;;;;;;;71.00;55.00;;;;;;;;5027435;28;8791;-80
2023/01/23 04:01:46;;;;;;;;;65.40;52.20;;;;;;;;5012472;28;8832;-80
2023/01/23 04:04:13;;;;;;;;;68.50;54.00;;;;;;;;5028908;28;8850;-79
2023/01/23 04:06:40;;;;;;;;;69.60;51.40;;;;;;;;5012113;28;8771;-85
2023/01/23 04:09:06;;;;;;;;;65.20;49.60;;;;;;;;5029362;28;8778;-86
2023/01/23 04:11:33;;;;;;;;;67.00;50.25;;;;;;;;5011422;28;8796;-80
2023/01/23 04:14:00;;;;;;;;;70.50;53.25;;;;;;;;5030065;28;8771;-84
2023/01/23 04:16:27;;;;;;;;;64.00;50.00;;;;;;;;5033984;28;8784;-80
2023/01/23 04:18:54;;;;;;;;;55.75;45.00;;;;;;;;5035537;28;8753;-80
2023/01/23 04:21:20;;;;;;;;;66.25;49.75;;;;;;;;5034976;28;8773;-80
2023/01/23 04:23:47;;;;;;;;;65.25;52.25;;;;;;;;5017450;28;8807;-79
2023/01/23 04:26:14;;;;;;;;;70.25;54.50;;;;;;;;5033684;28;8772;-80
2023/01/23 04:28:40;;;;;;;;;71.50;55.25;;;;;;;;5033344;28;8773;-85
2023/01/23 04:31:08;;;;;;;;;60.75;50.00;;;;;;;;5015553;28;8794;-86
2023/01/23 04:33:35;;;;;;;;;58.75;46.25;;;;;;;;4998161;28;8779;-79
2023/01/23 04:36:02;;;;;;;;;62.50;48.50;;;;;;;;5015791;28;8771;-84
2023/01/23 04:38:29;;;;;;;;;58.00;44.00;;;;;;;;5014020;28;8879;-85
2023/01/23 04:40:55;;;;;;;;;59.50;46.75;;;;;;;;5014549;28;8767;-84
2023/01/23 04:43:22;;;;;;;;;54.75;44.00;;;;;;;;4998614;28;8763;-80
2023/01/23 04:45:58;;;;;;;;;53.75;42.50;;;;;;;;5030943;28;8808;-79
2023/01/23 04:48:24;;;;;;;;;59.25;46.75;;;;;;;;5018167;28;8764;-80
2023/01/23 04:50:51;;;;;;;;;62.25;45.75;;;;;;;;5035747;28;8817;-80
2023/01/23 04:53:18;;;;;;;;;53.25;39.75;;;;;;;;5034546;28;8756;-81
2023/01/23 04:55:47;;;;;;;;;52.75;42.25;;;;;;;;5018470;28;8779;-85
2023/01/23 04:58:13;;;;;;;;;60.50;46.75;;;;;;;;5020622;28;8765;-85
2023/01/23 05:00:40;;;;;;;;;57.75;45.25;;;;;;;;5018714;28;8928;-81
2023/01/23 05:03:06;;;;;;;;;55.25;44.75;;;;;;;;5013472;28;8802;-79
2023/01/23 05:05:33;;;;;;;;;51.75;42.75;;;;;;;;5013726;28;8742;-79
2023/01/23 05:08:00;;;;;;;;;60.00;46.25;;;;;;;;5015259;28;8779;-80
2023/01/23 05:10:26;;;;;;;;;56.00;44.50;;;;;;;;5013868;28;8743;-79
2023/01/23 05:12:53;;;;;;;;;54.50;43.75;;;;;;;;4998324;28;8878;-79
2023/01/23 05:15:20;;;;;;;;;57.50;45.25;;;;;;;;5013534;28;8779;-79
2023/01/23 05:17:47;;;;;;;;;54.50;43.25;;;;;;;;5013062;28;8759;-85
2023/01/23 05:20:13;;;;;;;;;57.75;46.50;;;;;;;;5013929;28;8797;-80
2023/01/23 05:22:51;;;;;;;;;56.50;44.25;;;;;;;;5014025;28;8881;-83
2023/01/23 05:26:18;;;;;;;;;52.75;43.50;;;;;;;;5070032;28;13378;-76
2023/01/23 05:28:45;;;;;;;;;56.75;44.00;;;;;;;;5052753;28;8964;-81
2023/01/23 05:31:12;;;;;;;;;53.25;43.00;;;;;;;;5037241;28;8735;-76
2023/01/23 05:33:39;;;;;;;;;59.00;44.00;;;;;;;;5019147;28;8841;-77
2023/01/23 05:36:06;;;;;;;;;51.75;42.50;;;;;;;;5036360;28;8821;-82
2023/01/23 05:38:33;;;;;;;;;58.50;45.00;;;;;;;;5036037;28;9439;-75
2023/01/23 05:40:59;;;;;;;;;48.50;40.75;;;;;;;;5036104;28;8773;-75
2023/01/23 05:43:26;;;;;;;;;58.25;45.50;;;;;;;;5035496;28;8845;-80
2023/01/23 05:45:53;;;;;;;;;60.25;46.25;;;;;;;;5016447;28;8836;-83
2023/01/23 05:48:20;;;;;;;;;55.50;45.25;;;;;;;;4999731;28;8779;-75
2023/01/23 05:50:46;;;;;;;;;54.75;45.00;;;;;;;;5015896;28;8755;-79
2023/01/23 05:53:13;;;;;;;;;54.00;42.25;;;;;;;;5016068;28;8733;-76
2023/01/23 05:55:40;;;;;;;;;53.50;43.25;;;;;;;;4999494;28;8747;-75
2023/01/23 05:58:09;;;;;;;;;52.25;40.50;;;;;;;;5000328;28;8851;-80
2023/01/23 06:00:36;;;;;;;;;57.00;43.25;;;;;;;;5013317;28;8743;-73
2023/01/23 06:03:03;;;;;;;;;57.75;43.75;;;;;;;;5018131;28;8743;-79
2023/01/23 06:05:29;;;;;;;;;56.25;44.50;;;;;;;;5034783;28;8735;-75
2023/01/23 06:07:56;;;;;;;;;53.00;40.50;;;;;;;;5034282;28;8853;-76
2023/01/23 06:10:23;;;;;;;;;54.75;43.50;;;;;;;;5017851;28;8757;-81
2023/01/23 06:12:49;;;;;;;;;51.75;40.50;;;;;;;;5016846;28;8888;-73
2023/01/23 06:15:16;;;;;;;;;49.50;39.75;;;;;;;;5014412;28;8784;-81
2023/01/23 06:17:43;;;;;;;;;50.50;42.25;;;;;;;;5011701;28;8761;-77
2023/01/23 06:20:11;;;;;;;;;53.50;42.00;;;;;;;;4995668;28;8767;-77
2023/01/23 06:22:38;;;;;;;;;53.50;40.75;;;;;;;;4994738;28;8778;-75
2023/01/23 06:25:04;;;;;;;;;52.75;42.00;;;;;;;;4970227;28;8962;-72
2023/01/23 06:27:34;;;;;;;;;51.75;42.50;;;;;;;;4976250;28;8900;-78
2023/01/23 06:30:01;;;;;;;;;56.00;43.75;;;;;;;;4972860;28;8829;-74
2023/01/23 06:32:28;;;;;;;;;51.00;42.25;28.70;82.60;;;;;;4976114;28;8935;-80
2023/01/23 06:34:54;;;;;;;;;54.25;45.00;28.50;82.40;;;;;;4995499;28;8754;-79
2023/01/23 06:37:24;;;;;;;;;48.00;40.75;28.10;83.90;;;;;;5000567;28;8779;-76
2023/01/23 06:39:50;;;;;;;;;49.75;42.00;28.60;82.00;;;;;;4998339;28;8898;-81
2023/01/23 06:42:17;;;;;;;;;50.75;40.00;28.10;82.80;;;;;;5014520;28;8775;-73
2023/01/23 06:44:43;;;;;;;;;54.25;41.75;28.00;82.10;;;;;;5017754;28;8793;-78
2023/01/23 06:47:10;;;;;;;;;51.00;40.75;28.30;80.70;;;;;;5017427;28;8772;-76
2023/01/23 06:49:36;;;;;;;;;49.25;38.00;28.50;82.50;;;;;;5017541;28;8769;-79
2023/01/23 06:52:03;;;;;;;;;48.75;40.00;28.70;79.60;;;;;;4986470;28;8772;-82
2023/01/23 06:54:30;;;;;;;;;49.75;39.75;28.50;79.60;;;;;;4985468;28;9293;-72
2023/01/23 06:56:56;;;;;;;;;41.25;35.75;28.80;79.20;;;;;;5019682;28;8776;-78
2023/01/23 06:59:23;;;;;;;;;48.00;39.25;29.00;78.30;;;;;;4983602;28;8785;-76
2023/01/23 07:01:50;;;;;;;;;49.25;38.75;29.10;78.10;;;;;;5001053;28;8769;-72
2023/01/23 07:04:16;;;;;;;;;49.75;38.25;28.50;79.30;;;;;;5018058;28;8850;-77
2023/01/23 07:06:43;;;;;;;;;48.00;40.00;28.60;79.30;;;;;;5001863;28;8772;-77
2023/01/23 07:09:10;;;;;;;;;48.75;40.25;28.40;79.70;;;;;;5001470;28;8760;-78
2023/01/23 07:11:55;;;;;;;;;50.25;40.00;28.40;81.70;;;;;;5001384;28;8784;-71
2023/01/23 07:14:22;;;;;;;;;49.50;38.75;28.30;80.00;;;;;;5000710;28;8856;-79
2023/01/23 07:16:48;;;;;;;;;45.25;35.50;28.40;80.40;;;;;;4984951;28;8883;-71
2023/01/23 07:19:15;;;;;;;;;50.00;39.50;28.80;78.30;;;;;;5019827;28;8784;-74
2023/01/23 07:21:42;;;;;;;;;47.25;38.00;29.10;78.30;;;;;;5017183;28;8745;-74
2023/01/23 07:24:08;;;;;;;;;44.25;36.00;29.40;76.40;;;;;;5019936;28;8837;-71
2023/01/23 07:26:35;;;;;;;;;44.00;35.00;29.50;75.30;;;;;;5004227;28;9611;-83
2023/01/23 07:29:02;;;;;;;;;49.25;39.75;29.30;76.80;;;;;;5004137;28;8765;-76
2023/01/23 07:31:28;;;;;;;;;48.50;39.25;29.50;75.30;;;;;;5020230;28;8831;-74
2023/01/23 07:33:55;;;;;;;;;51.75;39.50;29.30;75.80;;;;;;5005273;28;8741;-82
2023/01/23 07:36:21;;;;;;;;;46.75;36.00;29.30;75.40;;;;;;4987988;28;8773;-73
2023/01/23 07:38:48;;;;;;;;;45.75;38.00;29.10;76.90;;;;;;5020440;28;8757;-76
2023/01/23 07:41:15;;;;;;;;;46.50;38.50;28.90;77.00;;;;;;5020234;28;8847;-77
2023/01/23 07:43:41;;;;;;;;;47.75;38.50;28.90;76.00;;;;;;5020069;28;8756;-78
2023/01/23 07:46:08;;;;;;;;;37.50;33.75;28.90;74.80;;;;;;5020571;28;8872;-76
2023/01/23 07:48:36;;;;;;;;;43.75;35.25;29.00;73.80;;;;;;5017526;28;8757;-74
2023/01/23 07:51:03;;;;;;;;;44.00;35.25;29.10;73.20;;;;;;5003188;28;8769;-80
2023/01/23 07:53:30;;;;;;;;;47.50;38.50;29.00;73.30;;;;;;5003304;28;8733;-75
2023/01/23 07:55:57;;;;;;;;;38.00;30.25;29.00;74.00;;;;;;5003729;28;8773;-67
2023/01/23 07:58:23;;;;;;;;;44.50;37.00;28.90;70.40;;;;;;5003873;28;8769;-74
2023/01/23 08:00:50;;;;;;;;;39.25;34.00;28.90;71.90;;;;;;5027614;28;8770;-81
2023/01/23 08:03:16;;;;;;;;;42.25;34.00;29.00;71.50;;;;;;5020268;28;8757;-81
2023/01/23 08:05:48;;;;;;;;;42.00;34.75;29.20;67.80;;;;;;4986494;28;8765;-72
2023/01/23 08:08:15;;;;;;;;;40.00;35.00;29.30;68.00;;;;;;5037826;28;8933;-69
2023/01/23 08:10:42;;;;;;;;;38.50;33.25;29.20;69.20;;;;;;5036936;28;8737;-87
2023/01/23 08:13:09;;;;;;;;;31.25;28.75;29.20;69.60;;;;;;4987963;28;8737;-74
2023/01/23 08:15:37;;;;;;;;;36.75;34.00;29.30;68.60;;;;;;5035863;28;8751;-64
2023/01/23 08:18:04;;;;;;;;;40.50;33.00;29.40;68.30;;;;;;5037418;28;8835;-77
2023/01/23 08:20:31;;;;;;;;;34.50;30.25;29.60;67.20;;;;;;4987122;28;8749;-75
2023/01/23 08:22:59;;;;;;;;;40.00;34.00;29.90;63.40;;;;;;5002658;28;8780;-72
2023/01/23 08:25:26;;;;;;;;;37.75;33.25;29.70;64.60;;;;;;5012208;28;8857;-79
2023/01/23 08:27:52;;;;;;;;;40.00;34.00;29.70;65.70;;;;;;5003158;28;8801;-74
2023/01/23 08:30:19;;;;;;;;;39.25;34.25;29.60;66.10;;;;;;5006512;28;9446;-78
2023/01/23 08:32:46;;;;;;;;;39.75;33.25;29.50;66.10;;;;;;4982550;28;8769;-76
2023/01/23 08:35:12;;;;;;;;;40.25;32.50;29.40;66.40;;;;;;4966892;28;9024;-70
2023/01/23 08:37:41;;;;;;;;;34.00;31.75;29.60;65.00;;;;;;4982676;28;8772;-77
2023/01/23 08:40:08;;;;;;;;;37.25;32.75;29.90;64.20;;;;;;4968523;28;9485;-67
2023/01/23 08:42:34;;;;;;;;;40.00;34.00;30.00;62.80;;;;;;4999001;28;8800;-74
2023/01/23 08:45:01;;;;;;;;;32.00;30.25;29.90;63.40;;;;;;5026170;28;8845;-68
2023/01/23 08:47:35;;;;;;;;;38.00;33.50;29.80;64.60;;;;;;5036390;28;8778;-75
2023/01/23 08:50:02;;;;;;;;;39.75;33.50;29.80;66.40;;;;;;5035616;28;8800;-79
2023/01/23 08:52:29;;;;;;;;;42.25;34.00;29.80;66.50;;;;;;5035031;28;9158;-77
2023/01/23 08:54:58;;;;;;;;;38.00;33.25;29.70;65.80;;;;;;5036355;28;8855;-81
2023/01/23 08:57:25;;;;;;;;;41.25;35.50;29.70;66.90;;;;;;5003706;28;8780;-72
2023/01/23 08:59:52;;;;;;;;;40.25;34.50;29.70;68.70;;;;;;5013663;28;8781;-79
2023/01/23 09:02:18;;;;;;;;;42.25;34.00;29.60;67.20;;;;;;5002960;28;9380;-71
2023/01/23 09:04:45;;;;;;;;;40.75;32.25;29.50;67.90;;;;;;5018927;28;8786;-79
2023/01/23 09:07:12;;;;;;;;;37.50;32.75;29.40;67.50;;;;;;5020334;28;8723;-65
2023/01/23 09:09:38;;;;;;;;;40.50;34.75;29.20;67.30;;;;;;5019567;28;8766;-78
2023/01/23 09:12:05;;;;;;;;;45.00;35.50;29.20;69.60;;;;;;4986547;28;8771;-78
2023/01/23 09:14:32;;;;;;;;;48.50;36.00;29.20;71.70;;;;;;5021307;28;8766;-77
2023/01/23 09:16:58;;;;;;;;;45.75;35.00;29.40;69.90;;;;;;5035859;28;8762;-65
2023/01/23 09:19:25;;;;;;;;;42.25;35.25;29.30;70.60;;;;;;5037503;28;8741;-71
2023/01/23 09:21:55;;;;;;;;;37.50;34.50;29.20;68.00;;;;;;5020801;28;8731;-79
2023/01/23 09:24:22;;;;;;;;;44.00;35.00;29.20;66.10;;;;;;5019757;28;8965;-77
2023/01/23 09:26:49;;;;;;;;;43.25;36.50;29.10;65.10;;;;;;5036059;28;8786;-78
2023/01/23 09:29:15;;;;;;;;;45.50;36.50;29.10;65.70;;;;;;4996827;28;8786;-66
2023/01/23 09:31:42;;;;;;;;;44.25;36.25;29.10;65.90;;;;;;4997149;28;8841;-77
2023/01/23 09:34:09;;;;;;;;;41.50;35.00;29.10;65.30;;;;;;4996822;28;8776;-79
2023/01/23 09:36:35;;;;;;;;;37.50;33.50;29.20;63.90;;;;;;4979694;28;8755;-80
2023/01/23 09:39:02;;;;;;;;;41.00;33.75;29.00;63.70;;;;;;4964014;28;8885;-80
2023/01/23 09:41:32;;;;;;;;;41.50;33.25;29.20;65.50;;;;;;4979753;28;8793;-72
2023/01/23 09:44:06;;;;;;;;;39.50;33.50;29.50;65.50;;;;;;4998083;28;8778;-74
2023/01/23 09:46:41;;;;;;;;;43.25;36.25;29.40;63.80;;;;;;5035502;28;9071;-74
2023/01/23 09:49:14;;;;;;;;;38.25;33.75;29.30;67.00;;;;;;5019763;28;8750;-69
2023/01/23 09:51:52;;;;;;;;;37.00;32.75;29.00;68.50;;;;;;5018532;28;8779;-70
2023/01/23 09:54:28;;;;;;;;;37.00;33.00;28.90;66.40;;;;;;5024636;28;8754;-70
2023/01/23 09:56:54;;;;;;;;;41.50;34.00;28.90;68.60;;;;;;5035253;28;8754;-81
2023/01/23 09:59:36;;;;;;;;;41.50;34.00;29.00;63.70;;;;;;5014111;28;8800;-77
2023/01/23 10:02:13;;;;;;;;;42.75;36.25;28.90;67.10;;;;;;5015867;28;9546;-75
2023/01/23 10:04:39;;;;;;;;;43.25;33.75;28.80;66.20;;;;;;5014771;28;8830;-67
2023/01/23 10:08:33;;;;;;;;;38.75;34.25;28.70;64.80;;;;;;5087271;28;13247;-80
2023/01/23 10:11:26;;;;;;;;;37.75;32.75;28.70;66.30;;;;;;5000264;28;8762;-81
2023/01/23 10:14:05;;;;;;;;;34.50;31.50;28.50;70.30;;;;;;5023834;28;8790;-80
2023/01/23 10:16:31;;;;;;;;;37.25;31.25;28.40;68.50;;;;;;5069566;28;8755;-78
2023/01/23 10:19:22;;;;;;;;;38.00;33.25;28.20;68.40;;;;;;5054922;28;8752;-81
2023/01/23 10:21:55;;;;;;;;;38.00;34.25;28.10;68.50;;;;;;5069522;28;8757;-80
2023/01/23 10:24:47;;;;;;;;;39.50;34.50;28.00;69.30;;;;;;5052586;28;8780;-76
2023/01/23 10:27:40;;;;;;;;;38.50;33.00;27.90;72.00;;;;;;5052460;28;8763;-82
2023/01/23 10:30:25;;;;;;;;;34.50;30.25;27.80;75.50;;;;;;5026767;28;8796;-79
2023/01/23 10:33:00;;;;;;;;;38.00;32.00;27.80;72.90;;;;;;5034108;28;9012;-77
2023/01/23 10:35:39;;;;;;;;;40.00;34.00;27.70;72.70;;;;;;5034264;28;8763;-82
2023/01/23 10:38:32;;;;;;;;;46.75;37.50;27.70;72.60;;;;;;5032982;28;8774;-79
2023/01/23 10:41:16;;;;;;;;;41.00;33.25;27.60;72.50;;;;;;5033834;28;8747;-80
2023/01/23 10:43:47;;;;;;;;;45.50;33.50;27.50;72.50;;;;;;5018354;28;8767;-81
2023/01/23 10:46:27;;;;;;;;;37.50;33.25;27.50;73.20;;;;;;5052838;28;8836;-79
2023/01/23 10:48:54;;;;;;;;;43.25;35.50;27.40;74.60;;;;;;5037342;28;8748;-75
2023/01/23 10:51:36;;;;;;;;;48.50;36.25;27.30;76.00;;;;;;5035497;28;8806;-81
2023/01/23 10:54:05;;;;;;;;;47.00;36.00;27.20;78.30;;;;;;5037134;28;8776;-83
2023/01/23 10:56:32;;;;;;;;;46.25;37.00;27.10;77.40;;;;;;5052015;28;8756;-76
2023/01/23 10:59:03;;;;;;;;;48.75;38.75;27.00;76.40;;;;;;5050917;28;8760;-72
2023/01/23 11:01:33;;;;;;;;;44.25;36.50;26.80;75.00;;;;;;5031914;28;8758;-80
2023/01/23 11:04:11;;;;;;;;;48.50;39.75;26.70;76.80;;;;;;5016144;28;8759;-82
2023/01/23 11:06:37;;;;;;;;;45.75;39.00;26.60;77.80;;;;;;5006455;28;8886;-79
2023/01/23 11:09:17;;;;;;;;;49.50;39.00;26.60;78.90;;;;;;4996405;28;8781;-68
2023/01/23 11:11:44;;;;;;;;;52.25;40.75;26.50;78.20;;;;;;4998197;28;8805;-82
2023/01/23 11:14:13;;;;;;;;;52.00;40.50;26.40;77.70;;;;;;4998774;28;8777;-82
2023/01/23 11:16:39;;;;;;;;;49.00;40.25;26.30;80.50;;;;;;5031983;28;8771;-72
2023/01/23 11:19:10;;;;;;;;;50.50;41.00;26.20;81.00;;;;;;4987810;28;8968;-78
2023/01/23 11:21:54;;;;;;;;;51.00;40.25;26.10;82.40;;;;;;5020158;28;8786;-82
2023/01/23 11:24:21;;;;;;;;;55.00;44.25;25.90;85.10;;;;;;5002734;28;8763;-83
2023/01/23 11:27:00;;;;;;;;;46.50;37.50;25.80;85.80;;;;;;5018458;28;8826;-83
2023/01/23 11:29:29;;;;;;;;;54.25;42.50;25.60;86.00;;;;;;5000338;28;9568;-82
2023/01/23 11:32:02;;;;;;;;;54.00;44.25;25.30;86.60;;;;;;4983501;28;8792;-81
2023/01/23 11:34:48;;;;;;;;;52.25;43.25;25.30;87.10;;;;;;4983397;28;8795;-78
2023/01/23 11:37:24;;;;;;;;;53.50;42.75;25.20;87.00;;;;;;4985259;28;8777;-72
2023/01/23 11:40:07;;;;;;;;;60.75;48.50;25.00;86.50;;;;;;5016232;28;8800;-69
2023/01/23 11:42:33;;;;;;;;;65.25;49.75;24.70;92.50;;;;;;5000353;28;8758;-76
2023/01/23 11:45:00;;;;;;;;;69.80;54.80;24.60;91.60;;;;;;5008142;28;8803;-82
2023/01/23 11:47:46;;;;;;;;;72.20;55.60;24.50;91.70;;;;;;5002067;28;8782;-81
2023/01/23 11:50:36;;;;;;;;;65.00;51.50;24.50;92.90;;;;;;4987084;28;8762;-70
2023/01/23 11:53:19;;;;;;;;;69.50;53.00;24.50;94.20;;;;;;5002833;28;8767;-77
2023/01/23 11:55:55;;;;;;;;;66.00;49.75;24.40;93.70;;;;;;5019044;28;8813;-78
2023/01/23 11:58:53;;;;;;;;;70.00;51.25;24.30;94.50;;;;;;5020118;28;8873;-83
2023/01/23 12:01:33;;;;;;;;;69.50;51.25;24.20;95.20;;;;;;4999423;28;8778;-72
2023/01/23 12:04:02;;;;;;;;;67.75;53.25;24.10;94.70;;;;;;5000013;28;8773;-82
2023/01/23 12:06:49;;;;;;;;;65.50;53.25;23.90;94.70;;;;;;5015763;28;8849;-78
2023/01/23 12:09:16;;;;;;;;;75.50;56.25;23.90;95.10;;;;;;5028551;28;8765;-82
2023/01/23 12:12:19;;;;;;;;;62.25;50.75;23.80;95.20;;;;;;4988707;28;8796;-82
2023/01/23 12:14:54;;;;;;;;;73.50;53.75;23.70;97.50;;;;;;5028294;28;8799;-82
2023/01/23 12:17:27;;;;;;;;;66.75;52.75;23.70;97.70;;;;;;5008882;28;9435;-66
2023/01/23 12:22:44;;;;;;;;;66.80;53.20;23.70;97.10;;;;;;5054350;28;13578;-69
2023/01/23 12:25:35;;;;;;;;;71.00;53.50;23.60;97.00;;;;;;5043878;28;8861;-81
2023/01/23 12:28:21;;;;;;;;;71.75;55.50;23.50;97.10;;;;;;5053473;28;8744;-70
2023/01/23 12:31:23;;;;;;;;;70.00;52.60;23.30;97.00;;;;;;5042394;28;9433;-84
2023/01/23 12:34:18;;;;;;;;;71.50;53.75;23.30;97.30;;;;;;5053608;28;8899;-79
2023/01/23 12:36:54;;;;;;;;;69.00;53.00;23.30;97.40;;;;;;5054391;28;8905;-70
2023/01/23 12:39:37;;;;;;;;;71.00;54.25;23.30;97.50;;;;;;5054581;28;8856;-74
2023/01/23 12:42:20;;;;;;;;;73.00;55.00;23.30;97.00;;;;;;5053858;28;8772;-79
2023/01/23 12:44:57;;;;;;;;;71.60;56.00;23.20;96.70;;;;;;5071019;28;8740;-82
2023/01/23 12:47:31;;;;;;;;;74.20;58.00;23.20;97.10;;;;;;5036184;28;8756;-74
2023/01/23 12:50:08;;;;;;;;;72.20;56.20;23.00;97.60;;;;;;5044199;28;8740;-67
2023/01/23 12:52:47;;;;;;;;;72.80;55.40;23.00;98.30;;;;;;5053764;28;8835;-78
2023/01/23 12:55:20;;;;;;;;;80.60;59.20;23.00;99.10;;;;;;5053448;28;8764;-79
2023/01/23 12:57:50;;;;;;;;;79.00;70.00;22.90;98.00;;;;;;5053736;28;8875;-74
2023/01/23 13:00:38;;;;;;;;;83.60;70.60;22.90;96.80;;;;;;5040830;28;8807;-79
2023/01/23 13:03:12;;;;;;;;;88.60;77.40;22.70;97.10;;;;;;5032547;28;8935;-71
2023/01/23 13:05:53;;;;;;;;;84.80;70.20;22.60;97.20;;;;;;5033862;28;9429;-75
2023/01/23 13:08:31;;;;;;;;;79.40;65.00;22.60;97.10;;;;;;5032651;28;8853;-81
2023/01/23 13:11:39;;;;;;;;;89.60;73.80;22.50;96.20;;;;;;5050977;28;8778;-81
2023/01/23 13:14:22;;;;;;;;;80.20;65.80;22.70;96.80;;;;;;5013608;28;9030;-70
2023/01/23 13:16:50;;;;;;;;;85.40;68.60;22.70;97.10;;;;;;5053646;28;8863;-70
2023/01/23 13:22:23;;;;;;;;;77.80;68.00;22.60;96.90;;;;;;5068023;28;8784;-82
2023/01/23 13:25:16;;;;;;;;;81.80;71.40;22.50;97.40;;;;;;5036564;28;8795;-75
2023/01/23 13:27:56;;;;;;;;;81.20;67.60;22.50;97.20;;;;;;5053689;28;8794;-67
2023/01/23 13:30:30;;;;;;;;;76.60;60.40;22.50;96.80;;;;;;5049517;28;8905;-81
2023/01/23 13:33:02;;;;;;;;;81.40;69.80;22.20;97.10;;;;;;5021862;28;8774;-72
2023/01/23 13:35:43;;;;;;;;;85.60;69.20;22.20;98.10;;;;;;5020151;28;8747;-68
2023/01/23 13:38:24;;;;;;;;;86.00;77.20;22.20;98.00;;;;;;5020838;28;9498;-69
2023/01/23 13:41:17;;;;;;;;;78.40;62.80;22.20;98.00;;;;;;5019522;28;8763;-82
2023/01/23 13:43:54;;;;;;;;;82.60;72.40;22.20;97.40;;;;;;5019557;28;8750;-80
2023/01/23 13:46:39;;;;;;;;;85.00;70.00;22.20;97.40;;;;;;5003826;28;8763;-78
2023/01/23 13:49:51;;;;;;;;;84.00;73.00;22.20;97.90;;;;;;5019721;28;8795;-69
2023/01/23 13:58:20;;;;;;;;;87.60;74.80;21.80;97.40;;;;;;5006360;28;8751;-82
2023/01/23 14:06:53;;;;;;;;;83.40;68.60;22.10;97.10;;;;;;5038456;28;8749;-82
2023/01/23 14:09:28;;;;;;;;;83.00;69.40;22.10;97.20;;;;;;5038252;28;8780;-72
2023/01/23 14:11:59;;;;;;;;;80.00;64.80;22.10;98.20;;;;;;5021845;28;8795;-68
2023/01/23 14:17:11;;;;;;;;;86.80;75.00;22.10;99.30;;;;;;5032747;28;8754;-82
2023/01/23 14:19:47;;;;;;;;;81.60;73.00;21.90;99.30;;;;;;5018609;28;8770;-72
2023/01/23 14:22:14;;;;;;;;;88.20;76.80;21.90;99.50;;;;;;5019126;28;8743;-71
2023/01/23 14:24:43;;;;;;;;;81.80;67.20;21.90;99.30;;;;;;5034485;28;8770;-81
2023/01/23 14:27:36;;;;;;;;;93.00;75.40;21.70;99.00;;;;;;5018281;28;8763;-82
2023/01/23 14:30:18;;;;;;;;;85.60;72.60;21.70;98.90;;;;;;5024642;28;8795;-73
2023/01/23 14:32:45;;;;;;;;;102.80;85.00;21.70;99.60;;;;;;5039394;28;9445;-80
2023/01/23 14:35:28;;;;;;;;;79.40;65.00;21.60;99.90;;;;;;5037669;28;8834;-81
2023/01/23 14:37:57;;;;;;;;;82.40;69.20;21.50;99.90;;;;;;5022170;28;8790;-67
2023/01/23 14:40:24;;;;;;;;;80.60;69.40;21.50;99.90;;;;;;5038215;28;8897;-74
2023/01/23 14:42:57;;;;;;;;;86.80;72.00;21.40;99.90;;;;;;5022026;28;8772;-75
2023/01/23 14:45:23;;;;;;;;;85.80;75.60;21.30;99.90;;;;;;5025682;28;8825;-70